Time;durP1;ratioP1;P1;durP2;ratioP2;P2;SDS_P1;SDS_P2;PMS_P1;PMS_P2;Temp;Humidity;BMP_temperature;BMP_pressure;BME280_temperature;BME280_humidity;BME280_pressure;Samples;Min_cycle;Max_cycle;Signal;HPM_P1;HPM_P2
2022/03/31 00:00:13;;;;;;;8.17;4.33;;;5.60;90.70;;;;;;4979917;28;20470;-42
2022/03/31 00:02:40;;;;;;;10.40;4.00;;;5.60;90.80;;;;;;4979999;28;20494;-41
2022/03/31 00:05:07;;;;;;;5.10;3.60;;;5.50;91.20;;;;;;4979977;28;20434;-40
2022/03/31 00:07:34;;;;;;;3.17;2.83;;;5.50;90.90;;;;;;4979423;28;20538;-41
2022/03/31 00:10:01;;;;;;;7.37;3.93;;;5.50;90.90;;;;;;4980174;28;20487;-40
2022/03/31 00:12:31;;;;;;;5.70;3.10;;;5.50;90.90;;;;;;4980159;28;20450;-41
2022/03/31 00:14:58;;;;;;;9.03;4.30;;;5.40;91.00;;;;;;4980437;28;20788;-42
2022/03/31 00:17:24;;;;;;;12.43;3.90;;;5.30;91.00;;;;;;4980591;28;20459;-43
2022/03/31 00:19:51;;;;;;;6.07;4.17;;;5.30;91.20;;;;;;4980634;28;20465;-41
2022/03/31 00:22:19;;;;;;;5.70;3.70;;;5.30;91.50;;;;;;4981764;28;20474;-41
2022/03/31 00:24:46;;;;;;;8.67;3.93;;;5.20;91.40;;;;;;4982950;28;20520;-41
2022/03/31 00:27:13;;;;;;;8.20;4.07;;;5.20;91.40;;;;;;4983261;28;20470;-40
2022/03/31 00:29:41;;;;;;;5.17;3.97;;;5.20;91.40;;;;;;4982596;28;20482;-40
2022/03/31 00:32:08;;;;;;;8.20;4.27;;;5.20;91.30;;;;;;4983103;28;20541;-43
2022/03/31 00:34:36;;;;;;;7.60;4.70;;;5.20;91.40;;;;;;4983175;28;20450;-39
2022/03/31 00:37:03;;;;;;;7.73;4.00;;;5.20;91.10;;;;;;4983862;28;20498;-40
2022/03/31 00:39:32;;;;;;;7.07;4.57;;;5.20;91.30;;;;;;4983356;28;20470;-40
2022/03/31 00:41:59;;;;;;;8.10;4.23;;;5.20;91.20;;;;;;4983807;28;20482;-40
2022/03/31 00:44:26;;;;;;;4.60;4.10;;;5.10;90.90;;;;;;4983237;28;20946;-40
2022/03/31 00:46:56;;;;;;;5.87;3.27;;;5.10;91.00;;;;;;4984021;28;20454;-41
2022/03/31 00:49:25;;;;;;;5.83;4.13;;;5.00;91.20;;;;;;4983626;28;20483;-40
2022/03/31 00:51:53;;;;;;;7.47;3.70;;;5.00;91.20;;;;;;4983266;28;20469;-40
2022/03/31 00:54:22;;;;;;;5.60;3.40;;;5.00;91.00;;;;;;4983258;28;20517;-41
2022/03/31 00:56:50;;;;;;;4.90;3.27;;;4.90;91.60;;;;;;4983793;28;20756;-40
2022/03/31 00:59:18;;;;;;;5.47;3.57;;;4.90;91.40;;;;;;4983765;28;20927;-43
2022/03/31 01:01:47;;;;;;;8.77;4.80;;;4.90;91.70;;;;;;4983421;28;20525;-46
2022/03/31 01:04:15;;;;;;;4.13;3.23;;;4.80;91.90;;;;;;4983882;28;20467;-40
2022/03/31 01:06:44;;;;;;;5.50;3.67;;;4.80;91.90;;;;;;4983544;28;20462;-39
2022/03/31 01:09:13;;;;;;;9.50;5.00;;;4.80;91.80;;;;;;4982963;28;20459;-41
2022/03/31 01:11:40;;;;;;;3.53;2.70;;;4.70;91.90;;;;;;4983237;28;20466;-42
2022/03/31 01:14:07;;;;;;;5.50;3.23;;;4.70;91.90;;;;;;4983188;28;20482;-43
2022/03/31 01:16:34;;;;;;;6.80;3.87;;;4.60;91.80;;;;;;4983209;28;20847;-41
2022/03/31 01:19:04;;;;;;;5.43;3.90;;;4.60;92.10;;;;;;4982710;28;20463;-41
2022/03/31 01:21:32;;;;;;;7.57;4.57;;;4.70;92.70;;;;;;4982544;28;20435;-42
2022/03/31 01:24:01;;;;;;;7.37;4.77;;;4.70;92.50;;;;;;4982997;28;20471;-41
2022/03/31 01:26:28;;;;;;;9.87;5.03;;;4.60;91.90;;;;;;4982853;28;20455;-41
2022/03/31 01:28:55;;;;;;;4.17;2.97;;;4.50;92.10;;;;;;4983185;28;20481;-41
2022/03/31 01:31:22;;;;;;;7.20;4.10;;;4.50;92.30;;;;;;4983018;28;20483;-41
2022/03/31 01:33:49;;;;;;;7.40;4.00;;;4.40;92.50;;;;;;4981737;28;20482;-40
2022/03/31 01:36:16;;;;;;;6.50;3.53;;;4.40;92.60;;;;;;4983191;28;20907;-39
2022/03/31 01:38:43;;;;;;;5.63;3.63;;;4.40;92.60;;;;;;4983140;28;20498;-40
2022/03/31 01:41:11;;;;;;;7.70;4.30;;;4.40;93.00;;;;;;4983186;28;20529;-41
2022/03/31 01:43:37;;;;;;;6.67;4.33;;;4.30;92.80;;;;;;4982789;28;20481;-42
2022/03/31 01:46:07;;;;;;;6.37;3.73;;;4.30;93.00;;;;;;4982746;28;20482;-41
2022/03/31 01:48:36;;;;;;;7.50;3.13;;;4.30;93.20;;;;;;4982604;28;20470;-41
2022/03/31 01:51:04;;;;;;;4.43;3.63;;;4.30;93.10;;;;;;4982421;28;20549;-41
2022/03/31 01:53:31;;;;;;;5.83;3.47;;;4.20;93.00;;;;;;4983333;28;20450;-40
2022/03/31 01:55:58;;;;;;;5.27;2.90;;;4.30;93.20;;;;;;4982524;28;20519;-40
2022/03/31 01:58:26;;;;;;;3.70;2.70;;;4.20;93.30;;;;;;4983077;28;20466;-42
2022/03/31 02:00:53;;;;;;;5.43;2.70;;;4.20;93.40;;;;;;4982870;28;20453;-41
2022/03/31 02:03:20;;;;;;;6.30;3.00;;;4.20;93.70;;;;;;4983255;28;20442;-40
2022/03/31 02:05:46;;;;;;;6.23;2.93;;;4.20;93.50;;;;;;4982445;28;20555;-40
2022/03/31 02:08:13;;;;;;;6.53;3.07;;;4.20;93.30;;;;;;4983149;28;20443;-41
2022/03/31 02:10:40;;;;;;;6.67;3.47;;;4.20;93.40;;;;;;4982316;28;20495;-41
2022/03/31 02:13:07;;;;;;;9.47;3.90;;;4.10;93.50;;;;;;4982679;28;20912;-40
2022/03/31 02:15:35;;;;;;;5.43;3.53;;;4.10;93.50;;;;;;4982426;28;20451;-41
2022/03/31 02:18:02;;;;;;;3.97;3.03;;;4.00;93.70;;;;;;4982680;28;20521;-41
2022/03/31 02:20:30;;;;;;;3.07;2.50;;;4.00;93.80;;;;;;4982684;28;20443;-41
2022/03/31 02:23:00;;;;;;;6.10;2.80;;;4.00;94.10;;;;;;4982771;28;20781;-41
2022/03/31 02:25:27;;;;;;;3.40;2.17;;;3.90;94.30;;;;;;4982518;28;20427;-41
2022/03/31 02:27:54;;;;;;;11.80;2.80;;;3.90;94.40;;;;;;4981464;28;20514;-41
2022/03/31 02:30:22;;;;;;;4.27;2.37;;;3.90;94.60;;;;;;4982776;28;20478;-41
2022/03/31 02:32:51;;;;;;;6.13;2.40;;;3.90;94.40;;;;;;4982929;28;20768;-40
2022/03/31 02:35:18;;;;;;;6.00;3.40;;;3.80;94.40;;;;;;4982670;28;20471;-40
2022/03/31 02:37:44;;;;;;;5.60;2.90;;;3.80;94.90;;;;;;4982771;28;20538;-41
2022/03/31 02:40:11;;;;;;;7.43;3.10;;;3.80;94.80;;;;;;4982614;28;20439;-41
2022/03/31 02:42:38;;;;;;;4.40;2.47;;;3.80;94.50;;;;;;4982558;28;20967;-41
2022/03/31 02:45:07;;;;;;;6.57;3.60;;;3.80;94.60;;;;;;4982764;28;20903;-42
2022/03/31 02:47:35;;;;;;;3.83;2.27;;;3.70;94.90;;;;;;4982083;28;20569;-41
2022/03/31 02:50:04;;;;;;;3.53;3.23;;;3.70;94.90;;;;;;4982965;28;20482;-40
2022/03/31 02:55:24;;;;;;;3.90;3.10;;;3.70;94.90;;;;;;4982935;28;20462;-41
2022/03/31 02:55:28;;;;;;;7.30;4.07;;;3.60;95.00;;;;;;4982406;28;20419;-43
2022/03/31 02:57:55;;;;;;;8.50;2.50;;;3.50;95.10;;;;;;4982457;28;20434;-41
2022/03/31 03:00:22;;;;;;;4.67;3.10;;;3.50;95.20;;;;;;4988248;28;20467;-40
2022/03/31 03:02:49;;;;;;;6.73;2.87;;;3.50;95.00;;;;;;4993498;28;20477;-41
2022/03/31 03:05:22;;;;;;;3.57;2.80;;;3.50;95.50;;;;;;4990190;28;20557;-41
2022/03/31 03:07:49;;;;;;;4.87;2.97;;;3.50;95.10;;;;;;4976819;28;20490;-51
2022/03/31 03:10:15;;;;;;;6.43;2.97;;;3.40;94.80;;;;;;4976000;28;20483;-43
2022/03/31 03:12:42;;;;;;;3.90;3.00;;;3.50;94.70;;;;;;4976009;28;20464;-46
2022/03/31 03:15:10;;;;;;;4.90;2.37;;;3.40;94.60;;;;;;4976052;28;20455;-50
2022/03/31 03:17:40;;;;;;;3.63;2.40;;;3.40;94.70;;;;;;4975770;28;20478;-42
2022/03/31 03:20:11;;;;;;;2.43;1.70;;;3.40;94.70;;;;;;4975967;28;20427;-50
2022/03/31 03:22:39;;;;;;;4.03;2.57;;;3.40;94.70;;;;;;4975740;28;20908;-50
2022/03/31 03:25:07;;;;;;;4.43;2.43;;;3.40;94.70;;;;;;4975528;28;20940;-49
2022/03/31 03:27:33;;;;;;;4.33;2.70;;;3.30;94.70;;;;;;4975780;28;20466;-45
2022/03/31 03:30:00;;;;;;;5.43;3.00;;;3.30;94.60;;;;;;4975837;28;20474;-50
2022/03/31 03:32:27;;;;;;;8.70;3.90;;;3.30;94.60;;;;;;4992126;28;20461;-47
2022/03/31 03:34:54;;;;;;;3.47;2.10;;;3.30;95.00;;;;;;4995207;28;20456;-57
2022/03/31 03:37:21;;;;;;;2.50;2.20;;;3.20;94.60;;;;;;4995164;28;20449;-46
2022/03/31 03:39:49;;;;;;;2.70;2.27;;;3.20;94.70;;;;;;4993997;28;20504;-48
2022/03/31 03:42:16;;;;;;;2.97;2.53;;;3.20;94.90;;;;;;4994081;28;20474;-46
2022/03/31 03:44:42;;;;;;;4.60;2.70;;;3.10;94.70;;;;;;4994187;28;20442;-41
2022/03/31 03:47:09;;;;;;;3.23;2.27;;;3.10;94.70;;;;;;4994998;28;21046;-44
2022/03/31 03:49:36;;;;;;;4.53;2.80;;;3.10;95.10;;;;;;4991906;28;20461;-47
2022/03/31 03:52:03;;;;;;;8.13;3.00;;;3.10;94.80;;;;;;4988223;28;20564;-49
2022/03/31 03:54:30;;;;;;;4.37;2.70;;;3.10;94.50;;;;;;4993123;28;20482;-47
2022/03/31 03:56:58;;;;;;;3.97;2.30;;;3.10;94.70;;;;;;4996019;28;20903;-44
2022/03/31 03:59:25;;;;;;;3.70;2.10;;;3.10;95.60;;;;;;4997900;28;20473;-47
2022/03/31 04:01:52;;;;;;;7.80;3.17;;;3.10;94.80;;;;;;4998699;28;20548;-50
2022/03/31 04:04:18;;;;;;;4.77;2.70;;;3.00;94.80;;;;;;4998702;28;20442;-47
2022/03/31 04:06:45;;;;;;;5.90;2.70;;;3.00;95.00;;;;;;4998341;28;20943;-48
2022/03/31 04:09:12;;;;;;;2.83;2.37;;;2.90;94.90;;;;;;4998064;28;20445;-47
2022/03/31 04:11:39;;;;;;;5.57;2.60;;;2.90;95.00;;;;;;4998532;28;20497;-46
2022/03/31 04:14:07;;;;;;;4.30;2.73;;;2.80;94.90;;;;;;4998303;28;20430;-50
2022/03/31 04:16:34;;;;;;;5.47;3.40;;;2.80;95.10;;;;;;4998477;28;20547;-45
2022/03/31 04:19:01;;;;;;;3.73;2.73;;;2.80;95.50;;;;;;4998484;28;20532;-45
2022/03/31 04:21:28;;;;;;;14.63;2.63;;;2.80;95.30;;;;;;4998180;28;20994;-42
2022/03/31 04:23:54;;;;;;;4.27;2.27;;;2.70;95.40;;;;;;4998056;28;20531;-41
2022/03/31 04:26:21;;;;;;;4.30;2.80;;;2.70;95.50;;;;;;4998426;28;20516;-48
2022/03/31 04:28:47;;;;;;;8.00;2.60;;;2.70;95.40;;;;;;4998202;28;20859;-48
2022/03/31 04:31:15;;;;;;;2.97;2.10;;;2.70;95.50;;;;;;4997862;28;20485;-47
2022/03/31 04:33:44;;;;;;;5.30;2.37;;;2.70;95.70;;;;;;4998186;28;20511;-46
2022/03/31 04:36:10;;;;;;;5.47;2.40;;;2.70;95.30;;;;;;4998086;28;20569;-44
2022/03/31 04:38:37;;;;;;;2.63;1.73;;;2.70;95.70;;;;;;4998135;28;20457;-51
2022/03/31 04:41:04;;;;;;;2.40;1.50;;;2.70;95.50;;;;;;4997884;28;21028;-47
2022/03/31 04:43:31;;;;;;;4.30;2.57;;;2.60;95.60;;;;;;4997827;28;20958;-47
2022/03/31 04:45:58;;;;;;;7.67;1.80;;;2.60;95.90;;;;;;4997781;28;20492;-50
2022/03/31 04:48:26;;;;;;;2.30;1.77;;;2.50;95.80;;;;;;4997591;28;20477;-43
2022/03/31 04:50:53;;;;;;;5.83;2.30;;;2.50;96.00;;;;;;4997789;28;20469;-41
2022/03/31 04:53:19;;;;;;;3.67;2.93;;;2.40;96.10;;;;;;4997734;28;20446;-45
2022/03/31 04:55:47;;;;;;;4.67;2.57;;;2.40;96.10;;;;;;4997416;28;20536;-50
2022/03/31 04:58:14;;;;;;;3.90;3.17;;;2.40;96.30;;;;;;4997742;28;20460;-47
2022/03/31 05:00:40;;;;;;;8.70;2.80;;;2.30;96.50;;;;;;4997763;28;20470;-48
2022/03/31 05:03:07;;;;;;;3.67;1.77;;;2.40;97.00;;;;;;4997726;28;20501;-46
2022/03/31 05:05:35;;;;;;;23.27;2.47;;;2.40;96.80;;;;;;4997598;28;20666;-47
2022/03/31 05:08:02;;;;;;;4.20;2.20;;;2.40;96.50;;;;;;4997405;28;20512;-43
2022/03/31 05:10:29;;;;;;;3.07;1.77;;;2.40;96.60;;;;;;4997509;28;20523;-50
2022/03/31 05:12:56;;;;;;;4.53;3.00;;;2.40;96.70;;;;;;4997440;28;20617;-47
2022/03/31 05:15:22;;;;;;;5.60;3.27;;;2.50;96.50;;;;;;4997575;28;20434;-51
2022/03/31 05:17:49;;;;;;;3.00;2.00;;;2.50;96.80;;;;;;4997470;28;20454;-49
2022/03/31 05:20:16;;;;;;;9.30;2.40;;;2.50;96.60;;;;;;4997333;28;20505;-43
2022/03/31 05:22:43;;;;;;;2.33;1.97;;;2.40;96.40;;;;;;4996832;28;20940;-43
2022/03/31 05:25:12;;;;;;;3.80;2.03;;;2.50;97.10;;;;;;4997219;28;20548;-47
2022/03/31 05:27:43;;;;;;;4.07;3.13;;;2.40;96.40;;;;;;4997154;28;20476;-44
2022/03/31 05:30:11;;;;;;;3.23;2.17;;;2.50;96.40;;;;;;4997132;28;20482;-47
2022/03/31 05:32:38;;;;;;;3.00;2.37;;;2.40;96.50;;;;;;4997121;28;20776;-47
2022/03/31 05:35:06;;;;;;;3.60;2.67;;;2.50;96.80;;;;;;4997073;28;20450;-46
2022/03/31 05:37:33;;;;;;;7.40;2.10;;;2.50;96.90;;;;;;4996801;28;20909;-47
2022/03/31 05:40:04;;;;;;;3.87;2.07;;;2.50;96.70;;;;;;4997004;28;20446;-45
2022/03/31 05:42:31;;;;;;;6.00;2.80;;;2.50;96.70;;;;;;4996767;28;21117;-50
2022/03/31 05:44:58;;;;;;;3.27;2.10;;;2.40;96.60;;;;;;4996806;28;20508;-44
2022/03/31 05:47:25;;;;;;;5.53;2.23;;;2.50;96.50;;;;;;4996839;28;20482;-47
2022/03/31 05:49:51;;;;;;;3.37;2.20;;;2.60;97.40;;;;;;4996807;28;20453;-47
2022/03/31 05:52:18;;;;;;;4.30;2.00;;;2.70;96.50;;;;;;4996312;28;20504;-46
2022/03/31 05:54:45;;;;;;;4.47;2.23;;;2.60;96.20;;;;;;4996651;28;20462;-44
2022/03/31 05:57:13;;;;;;;7.77;2.43;;;2.70;96.80;;;;;;4996555;28;20519;-45
2022/03/31 05:59:40;;;;;;;8.43;2.43;;;2.80;96.80;;;;;;4996616;28;20454;-45
2022/03/31 06:02:06;;;;;;;6.37;3.47;;;2.80;96.00;;;;;;4996550;28;20450;-42
2022/03/31 06:04:33;;;;;;;5.73;2.40;;;2.70;96.10;;;;;;4996536;28;20446;-44
2022/03/31 06:07:00;;;;;;;3.30;2.23;;;2.80;96.40;;;;;;4990194;28;20459;-43
2022/03/31 06:09:26;;;;;;;4.20;2.90;;;2.80;95.80;;;;;;4988156;28;20482;-46
2022/03/31 06:11:53;;;;;;;5.00;2.80;;;2.90;95.80;;;;;;5004674;28;20652;-48
2022/03/31 06:14:24;;;;;;;4.80;2.40;;;2.90;96.00;;;;;;4998275;28;20466;-47
2022/03/31 06:16:52;;;;;;;7.03;2.87;;;2.90;95.90;;;;;;5012724;28;20433;-49
2022/03/31 06:19:19;;;;;;;3.00;2.10;;;2.90;95.90;;;;;;5006832;28;20948;-48
2022/03/31 06:21:46;;;;;;;4.20;2.23;;;2.90;96.10;;;;;;4996873;28;20443;-43
2022/03/31 06:24:12;;;;;;;5.93;2.37;;;2.90;95.70;;;;;;4994544;28;20458;-47
2022/03/31 06:26:39;;;;;;;2.90;2.17;;;2.90;95.80;;;;;;5004781;28;20870;-48
2022/03/31 06:29:07;;;;;;;2.93;2.50;;;3.00;96.40;;;;;;5003940;28;20435;-46
2022/03/31 06:31:35;;;;;;;3.40;2.90;;;3.00;95.40;;;;;;4993890;28;20490;-45
2022/03/31 06:34:02;;;;;;;3.57;2.30;;;3.00;95.70;;;;;;5008529;28;20480;-44
2022/03/31 06:36:30;;;;;;;6.50;2.57;;;3.10;95.50;;;;;;5012824;28;20500;-46
2022/03/31 06:38:57;;;;;;;3.17;2.33;;;3.10;95.30;;;;;;5012421;28;20522;-45
2022/03/31 06:41:24;;;;;;;4.60;2.73;;;3.20;95.10;;;;;;5011449;28;20466;-41
2022/03/31 06:43:51;;;;;;;6.13;2.30;;;3.30;94.90;;;;;;5011020;28;20489;-42
2022/03/31 06:46:20;;;;;;;3.00;2.10;;;3.40;94.50;;;;;;5011663;28;20442;-46
2022/03/31 06:48:50;;;;;;;7.10;2.30;;;3.40;94.50;;;;;;5011710;28;20464;-49
2022/03/31 06:51:19;;;;;;;3.47;2.70;;;3.40;94.20;;;;;;5011769;28;20470;-47
2022/03/31 06:53:46;;;;;;;5.20;2.80;;;3.40;94.20;;;;;;5011939;28;20446;-46
2022/03/31 06:56:16;;;;;;;3.10;1.90;;;3.40;94.20;;;;;;5001996;28;20497;-44
2022/03/31 06:58:45;;;;;;;5.83;2.70;;;3.40;93.90;;;;;;5007165;28;20546;-42
2022/03/31 07:01:14;;;;;;;4.97;2.93;;;3.50;94.20;;;;;;4991084;28;20463;-44
2022/03/31 07:03:41;;;;;;;5.30;3.03;;;3.50;93.70;;;;;;4991388;28;20502;-45
2022/03/31 07:06:09;;;;;;;3.87;2.17;;;3.60;94.10;;;;;;4991586;28;20450;-47
2022/03/31 07:08:36;;;;;;;3.10;1.90;;;3.60;93.40;;;;;;4992175;28;20442;-48
2022/03/31 07:11:04;;;;;;;3.40;2.57;;;3.70;93.70;;;;;;4991423;28;20452;-50
2022/03/31 07:13:31;;;;;;;5.67;2.60;;;3.80;93.60;;;;;;4990701;28;20457;-41
2022/03/31 07:15:58;;;;;;;5.90;3.00;;;3.90;92.80;;;;;;4990165;28;20454;-42
2022/03/31 07:18:25;;;;;;;6.83;2.83;;;4.00;92.90;;;;;;4989577;28;20443;-33
2022/03/31 07:20:52;;;;;;;5.33;3.00;;;4.00;92.60;;;;;;4999201;28;20479;-37
2022/03/31 07:23:20;;;;;;;5.40;3.17;;;4.10;92.30;;;;;;4999085;28;20502;-36
2022/03/31 07:25:49;;;;;;;4.77;2.70;;;4.20;92.00;;;;;;4999218;28;20443;-49
2022/03/31 07:28:16;;;;;;;4.13;2.37;;;4.30;92.00;;;;;;4999240;28;20411;-51
2022/03/31 07:30:42;;;;;;;3.70;2.90;;;4.40;91.60;;;;;;4999156;28;20424;-56
2022/03/31 07:33:09;;;;;;;5.57;3.30;;;4.40;91.30;;;;;;5002131;28;20482;-54
2022/03/31 07:35:40;;;;;;;6.60;3.00;;;4.60;91.10;;;;;;5003150;28;20404;-50
2022/03/31 07:38:07;;;;;;;10.27;3.80;;;4.60;91.20;;;;;;5021568;28;20441;-51
2022/03/31 07:40:36;;;;;;;5.27;3.00;;;4.80;90.80;;;;;;5022689;28;20434;-54
2022/03/31 07:43:04;;;;;;;9.40;3.33;;;4.80;90.30;;;;;;5022644;28;20445;-51
2022/03/31 07:45:34;;;;;;;11.17;3.03;;;4.90;90.20;;;;;;5022655;28;20422;-52
2022/03/31 07:48:05;;;;;;;16.90;2.60;;;5.00;90.00;;;;;;5022488;28;20441;-52
2022/03/31 07:50:34;;;;;;;5.20;3.03;;;5.20;88.60;;;;;;5022380;28;20447;-48
2022/03/31 07:53:00;;;;;;;4.60;2.97;;;5.40;88.30;;;;;;5022244;28;20441;-51
2022/03/31 07:55:27;;;;;;;4.10;2.87;;;5.50;87.30;;;;;;5022229;28;20422;-52
2022/03/31 07:57:55;;;;;;;4.17;2.80;;;5.70;86.50;;;;;;5022338;28;20438;-51
2022/03/31 08:00:26;;;;;;;8.53;3.50;;;5.80;85.30;;;;;;5022168;28;20484;-52
2022/03/31 08:02:53;;;;;;;5.17;3.23;;;5.80;84.70;;;;;;5022193;28;20441;-53
2022/03/31 08:05:22;;;;;;;5.23;3.50;;;5.90;84.00;;;;;;5022045;28;20445;-53
2022/03/31 08:07:51;;;;;;;7.17;2.97;;;6.00;84.10;;;;;;5021970;28;20429;-54
2022/03/31 08:10:22;;;;;;;3.73;2.40;;;6.20;83.10;;;;;;5021989;28;20448;-51
2022/03/31 08:12:52;;;;;;;6.23;2.40;;;6.50;82.30;;;;;;5022092;28;20452;-52
2022/03/31 08:15:22;;;;;;;4.97;3.40;;;6.50;81.60;;;;;;5021886;28;20518;-52
2022/03/31 08:18:01;;;;;;;4.40;3.10;;;6.70;81.20;;;;;;5021814;28;20426;-49
2022/03/31 08:20:29;;;;;;;4.97;2.90;;;7.00;80.40;;;;;;5021468;28;20472;-60
2022/03/31 08:22:55;;;;;;;8.03;3.13;;;7.60;78.70;;;;;;5011355;28;20462;-63
2022/03/31 08:25:22;;;;;;;3.80;3.00;;;8.40;75.00;;;;;;5002778;28;20457;-61
2022/03/31 08:27:51;;;;;;;4.37;3.03;;;9.10;71.80;;;;;;5002297;28;21101;-64
2022/03/31 08:30:23;;;;;;;8.00;4.03;;;10.00;66.70;;;;;;5001739;28;20468;-63
2022/03/31 08:32:50;;;;;;;5.93;3.30;;;10.60;63.80;;;;;;5001563;28;20503;-63
2022/03/31 08:35:17;;;;;;;11.63;3.57;;;11.10;60.50;;;;;;4999484;28;20461;-63
2022/03/31 08:37:44;;;;;;;7.37;3.23;;;11.30;59.10;;;;;;4999244;28;20809;-66
2022/03/31 08:40:13;;;;;;;6.90;3.53;;;11.70;57.70;;;;;;4999388;28;20510;-64
2022/03/31 08:42:40;;;;;;;7.30;2.90;;;12.00;56.80;;;;;;4998463;28;20458;-63
2022/03/31 08:45:10;;;;;;;6.50;3.30;;;12.40;55.50;;;;;;4998672;28;20481;-64
2022/03/31 08:47:42;;;;;;;10.10;3.37;;;12.90;54.80;;;;;;4999043;28;20464;-65
2022/03/31 08:50:10;;;;;;;8.17;3.63;;;13.30;53.40;;;;;;4998714;28;20531;-65
2022/03/31 08:52:37;;;;;;;7.90;4.47;;;13.80;52.30;;;;;;4998490;28;20521;-65
2022/03/31 08:55:05;;;;;;;5.70;3.37;;;14.30;50.60;;;;;;4998291;28;20671;-64
2022/03/31 08:57:47;;;;;;;6.50;3.50;;;14.60;49.60;;;;;;4998123;28;20533;-64
2022/03/31 09:00:17;;;;;;;16.03;4.00;;;14.60;48.50;;;;;;4997870;28;20462;-65
2022/03/31 09:03:08;;;;;;;9.10;4.13;;;14.70;48.50;;;;;;4998069;28;20474;-65
2022/03/31 09:05:49;;;;;;;4.80;4.03;;;14.80;48.30;;;;;;4998203;28;20489;-63
2022/03/31 09:08:17;;;;;;;9.33;3.63;;;14.80;48.20;;;;;;4998562;28;20427;-66
2022/03/31 09:10:47;;;;;;;8.13;3.90;;;15.00;47.80;;;;;;4998397;28;20494;-65
2022/03/31 09:13:21;;;;;;;8.10;3.63;;;15.10;47.30;;;;;;4998546;28;20616;-65
2022/03/31 09:15:57;;;;;;;4.97;4.10;;;14.90;47.30;;;;;;4997940;28;20920;-66
2022/03/31 09:18:28;;;;;;;9.10;4.43;;;14.90;47.40;;;;;;4998013;28;20481;-66
2022/03/31 09:20:57;;;;;;;6.30;3.80;;;15.20;47.10;;;;;;4997810;28;20442;-69
2022/03/31 09:23:27;;;;;;;4.43;2.93;;;15.30;46.50;;;;;;4997944;28;20478;-64
2022/03/31 09:26:02;;;;;;;7.50;3.70;;;15.40;46.10;;;;;;4997707;28;20565;-62
2022/03/31 09:28:29;;;;;;;15.40;6.20;;;15.30;45.90;;;;;;4997753;28;20549;-65
2022/03/31 09:30:57;;;;;;;6.40;3.97;;;15.30;46.30;;;;;;4997441;28;20961;-66
2022/03/31 09:33:31;;;;;;;10.63;3.97;;;15.10;46.30;;;;;;4997779;28;20485;-66
2022/03/31 09:36:00;;;;;;;5.90;4.13;;;14.90;46.30;;;;;;4997917;28;20435;-63
2022/03/31 09:38:27;;;;;;;7.57;4.37;;;14.70;46.70;;;;;;4997892;28;20442;-64
2022/03/31 09:40:54;;;;;;;9.43;4.40;;;14.30;47.20;;;;;;4997679;28;20446;-63
2022/03/31 09:43:21;;;;;;;6.50;4.23;;;14.30;47.10;;;;;;4997675;28;20454;-66
2022/03/31 09:45:48;;;;;;;11.43;4.00;;;14.50;47.00;;;;;;4997259;28;20561;-66
2022/03/31 09:48:20;;;;;;;4.20;3.60;;;14.60;46.90;;;;;;4996978;28;20454;-65
2022/03/31 09:50:49;;;;;;;5.57;4.00;;;15.10;47.90;;;;;;4996801;28;20834;-62
2022/03/31 09:53:17;;;;;;;6.53;4.03;;;15.30;50.10;;;;;;4996827;28;20497;-67
2022/03/31 09:55:44;;;;;;;6.87;3.93;;;15.60;47.50;;;;;;4996082;28;20477;-65
2022/03/31 09:58:15;;;;;;;6.47;4.50;;;15.80;46.20;;;;;;4996784;28;20462;-64
2022/03/31 10:00:42;;;;;;;6.73;4.33;;;16.00;45.80;;;;;;4997339;28;20465;-64
2022/03/31 10:03:13;;;;;;;6.00;3.40;;;16.10;45.40;;;;;;4996624;28;20470;-66
2022/03/31 10:05:42;;;;;;;5.13;3.60;;;16.00;45.40;;;;;;4996769;28;20434;-66
2022/03/31 10:08:12;;;;;;;11.50;4.67;;;16.20;45.20;;;;;;4996604;28;20528;-64
2022/03/31 10:10:39;;;;;;;10.60;4.00;;;16.40;44.80;;;;;;4996271;28;20464;-61
2022/03/31 10:13:15;;;;;;;4.20;3.77;;;16.60;44.80;;;;;;4996494;28;20799;-64
2022/03/31 10:15:45;;;;;;;6.53;4.10;;;16.40;44.50;;;;;;4995229;28;20425;-64
2022/03/31 10:18:14;;;;;;;5.43;3.77;;;16.40;44.50;;;;;;4976876;28;20546;-71
2022/03/31 10:20:56;;;;;;;9.00;3.63;;;16.40;44.40;;;;;;4976931;28;20521;-65
2022/03/31 10:26:20;;;;;;;8.23;4.30;;;16.30;44.60;;;;;;4976976;28;20435;-69
2022/03/31 10:28:54;;;;;;;8.07;5.03;;;16.30;44.40;;;;;;4976941;28;20493;-65
2022/03/31 10:31:21;;;;;;;10.30;4.67;;;16.20;44.50;;;;;;5092489;22;20545;-65
2022/03/31 10:33:52;;;;;;;7.43;4.30;;;16.10;44.30;;;;;;5054447;28;20487;-66
2022/03/31 10:36:20;;;;;;;7.37;4.67;;;16.20;44.10;;;;;;5054784;28;20923;-65
2022/03/31 10:39:05;;;;;;;8.33;4.50;;;16.20;44.50;;;;;;5055408;28;20554;-66
2022/03/31 10:41:34;;;;;;;8.00;4.90;;;15.90;44.40;;;;;;5053745;28;20439;-65
2022/03/31 10:44:04;;;;;;;15.63;3.83;;;15.60;44.60;;;;;;5055431;28;20447;-69
2022/03/31 10:46:32;;;;;;;10.13;4.17;;;15.40;45.40;;;;;;5055350;28;20463;-64
2022/03/31 10:48:59;;;;;;;7.30;4.07;;;15.10;45.60;;;;;;5055752;28;20924;-66
2022/03/31 10:51:34;;;;;;;6.17;3.73;;;14.90;45.90;;;;;;5055144;28;20531;-67
2022/03/31 10:54:03;;;;;;;6.73;4.00;;;14.90;46.20;;;;;;5055226;28;20536;-67
2022/03/31 10:56:31;;;;;;;7.63;3.97;;;14.70;45.90;;;;;;5055331;28;20458;-66
2022/03/31 10:59:00;;;;;;;5.80;3.40;;;14.60;46.50;;;;;;5055034;28;20463;-65
2022/03/31 11:01:36;;;;;;;10.30;3.67;;;14.30;46.70;;;;;;5055469;28;20500;-66
2022/03/31 11:04:08;;;;;;;7.93;4.30;;;14.20;47.30;;;;;;5055271;28;20483;-65
2022/03/31 11:06:46;;;;;;;5.50;4.70;;;14.20;47.40;;;;;;5055034;28;20538;-67
2022/03/31 11:09:21;;;;;;;7.47;4.17;;;14.10;47.30;;;;;;5055366;28;20725;-65
2022/03/31 11:11:52;;;;;;;12.33;4.47;;;13.90;47.20;;;;;;5055466;28;20451;-64
2022/03/31 11:14:19;;;;;;;5.13;3.40;;;13.60;47.60;;;;;;5055250;28;20487;-67
2022/03/31 11:16:48;;;;;;;5.77;3.80;;;13.60;47.90;;;;;;5056120;28;20561;-64
2022/03/31 11:19:17;;;;;;;6.20;3.97;;;13.50;48.20;;;;;;5055368;28;20790;-60
2022/03/31 11:21:44;;;;;;;6.30;4.50;;;13.30;47.90;;;;;;5055035;28;20454;-63
2022/03/31 11:24:12;;;;;;;6.23;3.90;;;13.10;48.40;;;;;;5055178;28;20449;-63
2022/03/31 11:26:44;;;;;;;5.73;3.80;;;12.80;48.50;;;;;;5054818;28;20448;-63
2022/03/31 11:29:11;;;;;;;7.10;4.33;;;12.50;48.90;;;;;;5054965;28;20880;-62
2022/03/31 11:31:38;;;;;;;5.37;3.50;;;12.10;49.30;;;;;;5054917;28;20483;-64
2022/03/31 11:34:16;;;;;;;9.87;4.00;;;11.90;50.10;;;;;;5055140;28;20479;-62
2022/03/31 11:36:43;;;;;;;7.73;4.13;;;11.60;50.50;;;;;;5054936;28;20503;-60
2022/03/31 11:39:11;;;;;;;5.40;3.60;;;11.50;50.80;;;;;;5066676;28;20443;-59
2022/03/31 11:41:40;;;;;;;4.63;3.47;;;11.30;51.50;;;;;;5066731;28;20478;-61
2022/03/31 11:44:08;;;;;;;7.40;4.10;;;11.20;51.60;;;;;;5069633;28;20440;-62
2022/03/31 11:46:43;;;;;;;5.40;3.43;;;11.20;51.80;;;;;;5056647;28;20547;-62
2022/03/31 11:49:20;;;;;;;7.07;3.97;;;11.20;52.20;;;;;;5057463;28;20529;-61
2022/03/31 11:51:50;;;;;;;7.40;4.23;;;11.20;52.40;;;;;;5058421;28;20446;-60
2022/03/31 11:54:17;;;;;;;6.53;3.83;;;11.10;52.50;;;;;;5057582;28;20526;-58
2022/03/31 11:56:46;;;;;;;6.00;4.27;;;11.20;52.60;;;;;;5058795;28;20447;-63
2022/03/31 11:59:14;;;;;;;11.77;5.10;;;11.30;52.50;;;;;;5057707;28;20521;-61
2022/03/31 12:01:43;;;;;;;7.53;4.70;;;11.40;54.60;;;;;;5057684;28;20455;-62
2022/03/31 12:04:18;;;;;;;5.70;3.97;;;11.50;52.90;;;;;;5057731;28;20504;-63
2022/03/31 12:06:45;;;;;;;7.30;3.80;;;11.60;52.70;;;;;;5057222;28;20479;-61
2022/03/31 12:09:12;;;;;;;8.73;5.40;;;11.60;52.40;;;;;;5059253;28;20521;-63
2022/03/31 12:11:38;;;;;;;7.70;5.20;;;11.50;52.20;;;;;;5060070;28;21088;-62
2022/03/31 12:14:10;;;;;;;8.77;4.50;;;11.50;52.50;;;;;;5059577;28;20483;-62
2022/03/31 12:16:43;;;;;;;4.83;3.53;;;11.40;52.60;;;;;;5059247;28;20471;-62
2022/03/31 12:19:10;;;;;;;11.73;4.63;;;11.30;52.70;;;;;;5062204;28;20880;-62
2022/03/31 12:21:45;;;;;;;18.13;5.27;;;11.30;53.20;;;;;;5062937;28;20528;-62
2022/03/31 12:24:13;;;;;;;7.63;4.03;;;11.30;53.30;;;;;;5062615;28;20919;-62
2022/03/31 12:26:51;;;;;;;12.33;4.93;;;11.30;53.10;;;;;;5062116;28;20446;-62
2022/03/31 12:29:20;;;;;;;5.13;3.50;;;11.30;53.20;;;;;;5062491;28;20438;-62
2022/03/31 12:31:48;;;;;;;7.03;4.50;;;11.30;53.30;;;;;;5062968;28;20454;-61
2022/03/31 12:34:15;;;;;;;7.00;4.23;;;11.20;53.10;;;;;;5064048;28;20540;-62
2022/03/31 12:36:43;;;;;;;7.97;4.80;;;11.20;53.10;;;;;;5063993;28;20581;-61
2022/03/31 12:39:11;;;;;;;7.13;5.10;;;11.30;53.20;;;;;;5063297;28;20554;-57
2022/03/31 12:41:41;;;;;;;11.53;4.43;;;11.30;53.50;;;;;;5063107;28;20443;-58
2022/03/31 12:44:09;;;;;;;9.20;5.40;;;11.40;53.10;;;;;;5062732;28;20536;-62
2022/03/31 12:46:42;;;;;;;6.37;5.27;;;11.40;53.50;;;;;;5062638;28;20443;-62
2022/03/31 12:49:11;;;;;;;7.53;3.97;;;11.40;53.30;;;;;;5062391;28;20544;-62
2022/03/31 12:51:46;;;;;;;10.00;4.97;;;11.40;53.60;;;;;;5062400;28;20447;-61
2022/03/31 12:54:24;;;;;;;7.93;4.50;;;11.30;53.00;;;;;;5062047;28;20499;-59
2022/03/31 12:56:53;;;;;;;10.30;4.90;;;11.40;52.40;;;;;;5062152;28;20480;-63
2022/03/31 12:59:22;;;;;;;5.27;4.23;;;11.20;52.00;;;;;;5062467;28;20443;-63
2022/03/31 13:02:02;;;;;;;6.10;4.60;;;11.20;52.20;;;;;;5063128;28;20467;-62